Weather reports worldwide

Advertisment
Montana, Switzerland (6724): temperature & dewpoint: 18.11.2020 16:00:00 - 24.11.2020 16:00:00 (CET)Montana, Switzerland (6724): temperature 5cm: 18.11.2020 16:00:00 - 24.11.2020 16:00:00 (CET)Montana, Switzerland (6724): wind speed & gusts: 18.11.2020 16:00:00 - 24.11.2020 16:00:00 (CET)Montana, Switzerland (6724): wind direction: 18.11.2020 16:00:00 - 24.11.2020 16:00:00 (CET)Montana, Switzerland (6724): sunshine duration: 18.11.2020 16:00:00 - 24.11.2020 16:00:00 (CET)Montana, Switzerland (6724): precipitation: 18.11.2020 16:00:00 - 24.11.2020 16:00:00 (CET)
Date & Time tt [°C] td [°C] tt 5cm [°C] ff [km/h] ff [kn] fx [km/h] fx [kn] dd sd [min] rr [mm]
24.11.2020 16:00:00 - - - - - - - - - -
24.11.2020 15:00:00 10,2 -7,8 14,0 11 6 19 11 ENE 60 0,0
24.11.2020 14:00:00 9,9 -8,1 14,2 11 6 26 14 ENE 60 0,0
24.11.2020 13:00:00 9,8 -8,2 13,6 13 7 31 17 ENE 60 0,0
24.11.2020 12:00:00 9,1 -8,2 12,8 13 7 25 14 ENE 60 0,0
24.11.2020 11:00:00 7,9 -8,6 11,2 15 8 27 14 ENE 60 0,0
24.11.2020 10:00:00 6,5 -7,7 8,9 14 7 29 15 ENE 60 0,0
24.11.2020 09:00:00 5,6 -8,5 4,2 13 7 26 14 ENE 29 0,0
24.11.2020 08:00:00 2,3 -6,8 -1,8 8 4 13 7 NE 0 0,0
24.11.2020 07:00:00 2,2 -6,5 -1,8 9 5 16 9 NE 0 0,0
24.11.2020 06:00:00 1,6 -6,1 -1,4 12 6 16 8 NE 0 0,0
24.11.2020 05:00:00 2,5 -6,4 -1,9 10 5 13 7 NE 0 0,0
24.11.2020 04:00:00 1,2 -6,2 -2,7 7 4 10 6 NNE 0 0,0
24.11.2020 03:00:00 -0,2 -6,1 -3,2 7 4 13 7 NNE 0 0,0
24.11.2020 02:00:00 1,1 -6,3 -2,1 8 5 10 5 NE 0 0,0
24.11.2020 01:00:00 1,5 -5,9 -1,3 6 3 10 5 NE 0 0,0
24.11.2020 00:00:00 1,0 -6,5 -3,5 7 4 9 5 NE 0 0,0
23.11.2020 23:00:00 0,4 -6,4 -4,0 6 3 7 4 NNE 0 0,0
23.11.2020 22:00:00 0,6 -5,5 -2,4 5 3 9 5 NNE 0 0,0
23.11.2020 21:00:00 1,6 -6,7 -1,8 7 4 10 5 NE 0 0,0
23.11.2020 20:00:00 0,7 -7,0 -2,1 6 4 8 5 NNE 0 0,0
23.11.2020 19:00:00 1,8 -6,7 -2,1 5 3 7 4 NE 0 0,0
23.11.2020 18:00:00 0,9 -7,3 -2,9 5 3 8 4 ENE 0 0,0
23.11.2020 17:00:00 2,9 -6,3 -0,9 6 3 12 6 E 3 0,0
23.11.2020 16:00:00 4,4 -6,1 5,9 2 1 9 5 SSE 38 0,0
23.11.2020 15:00:00 5,5 -4,6 7,8 4 2 11 6 SW 5 0,0
23.11.2020 14:00:00 5,4 -5,5 7,7 6 3 11 6 W 29 0,0
23.11.2020 13:00:00 7,0 -5,5 11,7 6 3 13 7 W 55 0,0
23.11.2020 12:00:00 7,2 -5,1 12,7 6 3 10 5 WSW 60 0,0
23.11.2020 11:00:00 5,6 -6,3 10,5 6 3 8 5 WSW 60 0,0
23.11.2020 10:00:00 4,3 -6,5 7,7 5 3 6 4 SW 60 0,0
23.11.2020 09:00:00 3,2 -5,9 2,6 1 1 6 4 NW 22 0,0
23.11.2020 08:00:00 -0,2 -6,0 -3,7 5 3 10 6 N 0 0,0
23.11.2020 07:00:00 1,5 -6,2 -2,8 6 4 9 5 NE 0 0,0
23.11.2020 06:00:00 -1,3 -5,7 -4,8 6 3 9 5 NE 0 0,0
23.11.2020 05:00:00 -0,4 -5,9 -4,4 5 3 8 4 NNE 0 0,0
23.11.2020 04:00:00 1,4 -7,0 -3,6 3 2 6 3 N 0 0,0
23.11.2020 03:00:00 1,6 -6,3 -2,5 5 3 8 4 N 0 0,0
23.11.2020 02:00:00 0,9 -5,8 -3,1 5 3 7 4 N 0 0,0
23.11.2020 01:00:00 1,0 -5,3 -2,5 5 3 7 4 NNE 0 0,0
23.11.2020 00:00:00 3,0 -5,8 -0,8 6 3 7 4 NNE 0 0,0
22.11.2020 23:00:00 4,0 -5,4 -0,4 6 3 11 6 N 0 0,0
22.11.2020 22:00:00 3,5 -4,8 -0,6 6 3 8 5 NNE 0 0,0
22.11.2020 21:00:00 2,7 -5,0 -0,9 7 4 9 5 NNE 0 0,0
22.11.2020 20:00:00 4,2 -5,3 0,9 7 4 10 5 NNE 0 0,0
22.11.2020 19:00:00 5,0 -5,6 0,1 5 3 9 5 N 0 0,0
22.11.2020 18:00:00 5,6 -5,4 -0,4 5 3 7 4 NE 0 0,0
22.11.2020 17:00:00 6,1 -4,9 2,3 4 2 5 3 NNE 7 0,0
22.11.2020 16:00:00 8,7 -4,5 12,4 5 3 8 5 S 60 0,0
22.11.2020 15:00:00 10,6 -4,9 16,0 6 3 8 5 SW 60 0,0
22.11.2020 14:00:00 9,9 -4,7 10,8 5 3 9 5 WSW 58 0,0
22.11.2020 13:00:00 10,1 -6,2 15,6 5 3 9 5 WSW 60 0,0
22.11.2020 12:00:00 8,9 -6,9 14,4 5 3 11 6 WSW 60 0,0
22.11.2020 11:00:00 8,7 -10,4 13,3 4 2 9 5 SE 60 0,0
22.11.2020 10:00:00 7,5 -9,9 11,4 6 3 12 7 E 60 0,0
22.11.2020 09:00:00 5,2 -9,8 4,4 9 5 13 7 NE 32 0,0
22.11.2020 08:00:00 0,5 -9,8 -4,0 7 4 9 5 NNE 0 0,0
22.11.2020 07:00:00 1,7 -11,8 -1,8 8 4 11 6 NE 0 0,0
22.11.2020 06:00:00 1,1 -10,9 -4,5 8 4 10 5 NNE 0 0,0
22.11.2020 05:00:00 0,8 -10,0 -4,2 5 3 10 5 NNE 0 0,0
22.11.2020 04:00:00 0,9 -10,1 -3,3 6 3 12 7 NNE 0 0,0
22.11.2020 03:00:00 0,0 -9,1 -5,2 6 4 11 6 NNE 0 0,0
22.11.2020 02:00:00 0,8 -10,3 -2,7 10 5 12 6 NE 0 0,0
22.11.2020 01:00:00 1,0 -11,0 -3,5 6 3 13 7 NNE 0 0,0
22.11.2020 00:00:00 1,0 -10,6 -2,2 10 6 18 10 NE 0 0,0
21.11.2020 23:00:00 0,8 -9,7 -2,8 10 5 15 8 ENE 0 0,0
21.11.2020 22:00:00 -0,8 -8,6 -4,8 4 2 9 5 NNE 0 0,0
21.11.2020 21:00:00 0,5 -9,0 -3,9 6 4 12 6 NNE 0 0,0
21.11.2020 20:00:00 -0,3 -8,8 -3,7 6 4 15 8 NNE 0 0,0
21.11.2020 19:00:00 -0,6 -7,7 -3,4 7 4 12 7 NNE 0 0,0
21.11.2020 18:00:00 -0,9 -6,3 -4,1 8 4 9 5 NE 0 0,0
21.11.2020 17:00:00 0,5 -5,6 -3,4 4 2 6 3 NNE 13 0,0
21.11.2020 16:00:00 2,8 -4,4 5,8 4 2 8 4 ESE 60 0,0
21.11.2020 15:00:00 3,5 -6,3 8,3 6 3 11 6 W 60 0,0
21.11.2020 14:00:00 3,6 -3,5 9,2 6 4 11 6 WNW 60 0,0
21.11.2020 13:00:00 3,3 -4,6 9,1 5 3 10 6 SW 60 0,0
21.11.2020 12:00:00 2,5 -7,5 4,5 4 2 14 8 SE 60 0,0
21.11.2020 11:00:00 1,0 -6,4 3,3 4 2 10 5 E 59 0,0
21.11.2020 10:00:00 -1,4 -6,0 -1,0 5 3 11 6 ENE 57 0,0
21.11.2020 09:00:00 -2,2 -6,5 -4,5 5 3 9 5 NE 25 0,0
21.11.2020 08:00:00 -4,1 -6,6 -6,9 8 4 13 7 NNE 0 0,0
21.11.2020 07:00:00 -4,3 -6,4 -7,7 7 4 12 7 NE 0 0,0
21.11.2020 06:00:00 -3,8 -5,9 -7,4 6 4 14 8 N 0 0,0
21.11.2020 05:00:00 -3,0 -5,3 -6,6 9 5 14 7 ENE 0 0,0
21.11.2020 04:00:00 -3,3 -5,2 -7,0 6 3 13 7 ENE 0 0,0
21.11.2020 03:00:00 -3,5 -5,6 -7,2 6 4 12 7 NNE 0 0,0
21.11.2020 02:00:00 -3,0 -4,8 -6,4 6 4 12 7 NE 0 0,0
21.11.2020 01:00:00 -2,8 -4,6 -5,7 8 4 13 7 ENE 0 0,0
21.11.2020 00:00:00 -2,9 -4,7 -6,2 8 4 12 6 ENE 0 0,0
20.11.2020 23:00:00 -3,1 -4,3 -6,8 4 2 6 4 NNE 0 0,0
20.11.2020 22:00:00 -2,0 -3,5 -6,8 3 2 6 4 SW 0 0,0
20.11.2020 21:00:00 -1,8 -3,4 -5,4 4 2 9 5 NNE 0 0,0
20.11.2020 20:00:00 -2,0 -4,1 -5,8 4 2 11 6 NNE 0 0,0
20.11.2020 19:00:00 -1,2 -3,4 -5,8 6 3 9 5 W 0 0,0
20.11.2020 18:00:00 0,9 -9,4 -3,3 9 5 17 9 NW 0 0,0
20.11.2020 17:00:00 0,4 -4,5 -2,0 9 5 33 18 WNW 33 0,0
20.11.2020 16:00:00 2,4 -8,2 4,3 15 8 36 20 WNW 60 0,0
20.11.2020 15:00:00 2,6 -7,7 6,9 16 8 34 18 NW 60 0,0
20.11.2020 14:00:00 3,9 -2,9 8,8 9 5 23 12 W 60 0,0
20.11.2020 13:00:00 2,6 -2,6 8,5 11 6 26 14 WSW 60 0,0
20.11.2020 12:00:00 1,5 -2,8 7,7 12 7 19 11 W 60 0,0
20.11.2020 11:00:00 1,6 -2,6 6,3 11 6 19 10 WSW 60 0,0
20.11.2020 10:00:00 0,1 -2,9 2,9 10 5 17 9 WSW 11 0,0
20.11.2020 09:00:00 -0,3 -3,5 0,2 8 4 16 9 SW 0 0,0
20.11.2020 08:00:00 -0,7 -3,3 -1,2 8 4 17 9 WSW 0 0,0
20.11.2020 07:00:00 -1,0 -3,3 -1,4 6 3 15 8 W 0 0,0
20.11.2020 06:00:00 -0,8 -3,6 -1,1 8 4 26 14 W 0 0,0
20.11.2020 05:00:00 -0,8 -3,8 -1,3 10 5 26 14 W 0 0,0
20.11.2020 04:00:00 -0,6 -4,1 -1,0 10 5 21 11 W 0 0,0
20.11.2020 03:00:00 -0,3 -4,4 -0,7 7 4 13 7 W 0 0,0
20.11.2020 02:00:00 0,2 -5,8 -0,4 10 5 26 14 NW 0 0,0
20.11.2020 01:00:00 0,4 -6,6 -2,2 8 4 18 10 NNE 0 0,0
20.11.2020 00:00:00 0,2 -6,1 -3,2 8 5 24 13 SW 0 0,0
19.11.2020 23:00:00 1,5 -7,7 -0,5 15 8 42 23 NNW 0 0,0
19.11.2020 22:00:00 2,0 -9,5 -0,5 15 8 37 20 NNW 0 0,0
19.11.2020 21:00:00 1,8 -6,0 -0,4 18 10 39 21 N 0 0,0
19.11.2020 20:00:00 2,5 -5,8 0,0 19 10 42 23 NNE 0 0,0
19.11.2020 19:00:00 3,8 -5,4 1,0 14 8 50 27 NNW 0 0,0
19.11.2020 18:00:00 4,8 -2,9 2,7 28 15 52 28 N 0 0,0
19.11.2020 17:00:00 3,9 3,2 3,1 6 3 20 11 WNW 0 0,0
19.11.2020 16:00:00 5,3 3,3 5,7 10 5 17 9 W 21 0,0
19.11.2020 15:00:00 6,9 4,5 7,1 11 6 20 11 W 0 0,1
19.11.2020 14:00:00 5,1 2,4 5,6 8 5 16 8 W 0 0,2
19.11.2020 13:00:00 7,7 3,5 7,1 8 4 16 8 W 0 0,2
19.11.2020 12:00:00 7,6 1,6 7,5 5 3 11 6 W 0 0,2
19.11.2020 11:00:00 8,2 -1,4 9,4 7 4 9 5 WSW 0 0,0
19.11.2020 10:00:00 7,9 -1,0 7,9 6 3 9 5 WNW 0 0,0
19.11.2020 09:00:00 7,1 0,0 6,8 5 3 11 6 NNW 0 0,0
19.11.2020 08:00:00 5,7 -1,1 4,0 3 2 7 4 NNW 0 0,0
19.11.2020 07:00:00 5,2 -3,0 2,6 4 2 9 5 N 0 0,0
19.11.2020 06:00:00 4,1 -3,5 -0,6 6 3 9 5 N 0 0,0
19.11.2020 05:00:00 3,5 -3,2 0,3 4 2 8 5 NNW 0 0,0
19.11.2020 04:00:00 4,1 -2,9 -0,8 6 3 8 4 NNE 0 0,0
19.11.2020 03:00:00 2,8 -2,5 -0,6 6 4 9 5 NNE 0 0,0
19.11.2020 02:00:00 4,1 -2,8 0,5 8 5 10 6 NNE 0 0,0
19.11.2020 01:00:00 5,1 -3,0 1,3 7 4 9 5 NNE 0 0,0
19.11.2020 00:00:00 3,8 -2,2 0,4 7 4 9 5 NNE 0 0,0
18.11.2020 23:00:00 5,1 -2,2 0,7 6 3 10 5 NNE 0 0,0
18.11.2020 22:00:00 5,7 -2,2 0,7 7 4 9 5 NE 0 0,0
18.11.2020 21:00:00 6,6 -1,9 3,2 7 4 10 6 NNE 0 0,0
18.11.2020 20:00:00 7,5 -1,7 2,8 8 5 10 5 NE 0 0,0
18.11.2020 19:00:00 5,3 -0,8 1,1 7 4 8 4 N 0 0,0
18.11.2020 18:00:00 7,5 0,2 2,2 5 3 7 4 NNE 0 0,0
18.11.2020 17:00:00 9,4 -1,8 5,9 7 4 8 4 NE 35 0,0
18.11.2020 16:00:00 12,9 1,4 16,0 5 3 7 4 SSW 60 0,0

tt = temperature
td = dewpoint
tt 5cm = temperature 5cm
ff = wind speed
fx = gusts
dd = wind direction
sd = sunshine duration
rr = precipitation

Next stations